Airfield :







YOU CAN JOIN US ON...

 
LOGIN :

Register | Disclaimer

   EN    FR    IT 

 









Legend :    VFR   Marginal VFR   IFR   Intensive IFR   Very Intensive IFR
Visi :
Ceiling :
>= 8 km
>= 3000ft
5 to 8 km
1000 to 3000 ft
1500m to 5 km
500 to 1000 ft
800 to 1500m
200 to 500 ft
< 800m
< 200 ft
Symbols :   Thunderstorms  Fog  Heavy snow  Heavy precipitations  Wind > 20 kt






- Airport Elevation : 1009 ft
- IATA code : ORH


KORH - Worcester Regional

CURRENT METAR :
  • 181154Z 29014G20KT 10SM CLR 08/03 A2963 RMK AO2 SLP037 70019 T00780033 10078 20072 51027

EXPIRED METARs :
  • 181054Z 29010KT 10SM CLR 07/03 A2959 RMK AO2 SLP026 T00720033
  • 180954Z 27012G19KT 10SM BKN038 08/04 A2958 RMK AO2 SLP021 T00780039
  • 180914Z AUTO 28014G19KT 10SM SCT028 OVC035 08/04 A2955 RMK AO2 T00780039

TAF KORH
Valid from the 18 at 10:00 until the 19 at 06:00 UTC


181001Z 1810/1906 28011G19KT P6SM BKN035
FM181600 31012G22KT P6SM SCT040
FM182200 31009KT P6SM FEW250



MET'MAP, your aeronautical weather chart ! - Copyright ORBIFLY December 2007 - Disclaimer

ORBIFLY MET'MAP TEAM :

Programming & Development : Alexandra Zaïnal
Concept & Development : Baudouin d'Aumeries
Co-Development & Prog : Marc-Olivier Méhu
Technical & hardware support : Manuel Goepfert

Contact : metmap@orbifly.com




SOURCES & CREDITS :

   NOAA